Time;durP1;ratioP1;P1;durP2;ratioP2;P2;SDS_P1;SDS_P2;PMS_P1;PMS_P2;Temp;Humidity;BMP_temperature;BMP_pressure;BME280_temperature;BME280_humidity;BME280_pressure;Samples;Min_cycle;Max_cycle;Signal;HPM_P1;HPM_P2
2022/01/17 00:00:19;;;;;;;17.08;2.60;;;;;;;;;;5133192;28;20075;-80
2022/01/17 00:02:46;;;;;;;20.33;2.88;;;;;;;;;;5133024;28;20035;-80
2022/01/17 00:05:12;;;;;;;23.48;3.30;;;;;;;;;;5133304;28;20046;-80
2022/01/17 00:07:38;;;;;;;16.75;2.70;;;;;;;;;;5133008;28;20385;-80
2022/01/17 00:10:05;;;;;;;14.05;2.50;;;;;;;;;;5133078;28;20039;-80
2022/01/17 00:12:35;;;;;;;17.48;2.50;;;;;;;;;;5114441;28;20065;-81
2022/01/17 00:15:01;;;;;;;19.10;2.50;;;;;;;;;;5114794;28;20115;-81
2022/01/17 01:00:29;;;;;;;20.20;3.05;;;;;;;;;;5135129;27;20503;-79
2022/01/17 01:02:55;;;;;;;17.60;2.70;;;;;;;;;;5135520;27;20561;-80
2022/01/17 01:05:21;;;;;;;18.85;2.97;;;;;;;;;;5135944;27;20122;-81
2022/01/17 01:07:54;;;;;;;19.95;2.65;;;;;;;;;;5135903;27;20043;-80
2022/01/17 01:10:20;;;;;;;21.35;2.88;;;;;;;;;;5135897;27;20050;-80
2022/01/17 01:12:48;;;;;;;22.02;2.80;;;;;;;;;;5135765;27;20125;-80
2022/01/17 01:15:19;;;;;;;22.42;2.90;;;;;;;;;;5135683;27;20467;-81
2022/01/17 01:17:54;;;;;;;17.17;3.03;;;;;;;;;;5136014;27;20049;-81
2022/01/17 01:28:21;;;;;;;19.65;3.20;;;;;;;;;;5135415;27;20457;-80
2022/01/17 01:30:51;;;;;;;20.15;2.60;;;;;;;;;;5116477;27;20039;-80
2022/01/17 01:33:25;;;;;;;19.60;2.50;;;;;;;;;;5116822;27;20125;-80
2022/01/17 01:35:58;;;;;;;20.25;2.88;;;;;;;;;;5117273;27;20089;-80
2022/01/17 01:38:24;;;;;;;17.80;2.50;;;;;;;;;;5117109;27;20053;-81
2022/01/17 01:40:50;;;;;;;16.63;2.63;;;;;;;;;;5135493;27;20100;-80
2022/01/17 01:43:16;;;;;;;23.15;3.05;;;;;;;;;;5135400;27;20376;-80
2022/01/17 01:45:46;;;;;;;19.55;3.15;;;;;;;;;;5135018;27;20043;-79
2022/01/17 01:48:12;;;;;;;22.38;2.80;;;;;;;;;;5134911;27;20039;-79
2022/01/17 01:50:39;;;;;;;22.15;2.70;;;;;;;;;;5134848;27;20383;-79
2022/01/17 01:53:05;;;;;;;21.58;2.50;;;;;;;;;;5116753;27;20035;-80
2022/01/17 01:55:31;;;;;;;17.52;3.10;;;;;;;;;;5116684;27;20043;-80
2022/01/17 01:57:57;;;;;;;19.27;2.63;;;;;;;;;;5134995;27;20042;-79
2022/01/17 02:00:23;;;;;;;23.80;3.20;;;;;;;;;;5116389;27;20181;-80
2022/01/17 02:02:50;;;;;;;21.35;2.80;;;;;;;;;;5134730;27;20563;-80
2022/01/17 02:05:16;;;;;;;21.58;2.92;;;;;;;;;;5116244;27;20125;-80
2022/01/17 02:07:45;;;;;;;17.95;2.58;;;;;;;;;;5135027;27;20126;-80
2022/01/17 02:10:12;;;;;;;21.10;3.28;;;;;;;;;;5134912;27;20039;-81
2022/01/17 02:12:38;;;;;;;23.35;3.88;;;;;;;;;;5134650;27;20050;-81
2022/01/17 02:15:04;;;;;;;18.63;2.95;;;;;;;;;;5116578;27;20043;-81
2022/01/17 02:17:33;;;;;;;15.07;2.47;;;;;;;;;;5116196;27;20131;-81
2022/01/17 02:20:07;;;;;;;20.63;2.80;;;;;;;;;;5134449;27;20391;-81
2022/01/17 02:22:33;;;;;;;18.85;2.50;;;;;;;;;;5134354;27;20095;-81
2022/01/17 02:24:59;;;;;;;18.95;2.70;;;;;;;;;;5116110;27;20077;-79
2022/01/17 02:27:26;;;;;;;19.88;2.40;;;;;;;;;;5116116;27;20559;-79
2022/01/17 02:29:52;;;;;;;19.30;3.05;;;;;;;;;;5134107;27;20046;-81
2022/01/17 02:32:20;;;;;;;28.52;2.78;;;;;;;;;;5134011;27;20050;-80
2022/01/17 02:34:46;;;;;;;21.48;2.97;;;;;;;;;;5115921;27;20064;-80
2022/01/17 02:37:12;;;;;;;20.85;2.90;;;;;;;;;;5116275;27;20401;-80
2022/01/17 02:39:38;;;;;;;21.35;2.78;;;;;;;;;;5134292;27;20361;-81
2022/01/17 02:42:05;;;;;;;25.42;2.95;;;;;;;;;;5134102;27;20094;-80
2022/01/17 02:44:31;;;;;;;18.50;2.45;;;;;;;;;;5133941;27;20127;-81
2022/01/17 02:47:00;;;;;;;21.85;3.00;;;;;;;;;;5115911;27;20569;-80
2022/01/17 02:49:26;;;;;;;19.40;2.75;;;;;;;;;;5133924;27;20046;-80
2022/01/17 02:51:53;;;;;;;26.20;3.30;;;;;;;;;;5115630;27;20035;-79
2022/01/17 02:54:20;;;;;;;24.50;3.67;;;;;;;;;;5115965;27;20050;-79
2022/01/17 02:56:46;;;;;;;27.33;3.22;;;;;;;;;;5115614;27;20039;-80
2022/01/17 02:59:12;;;;;;;25.80;3.00;;;;;;;;;;5133678;27;20122;-81
2022/01/17 03:01:38;;;;;;;21.90;3.08;;;;;;;;;;5133709;27;20049;-79
2022/01/17 03:04:05;;;;;;;19.60;2.63;;;;;;;;;;5133991;27;20043;-81
2022/01/17 03:06:31;;;;;;;19.80;2.63;;;;;;;;;;5133770;27;20122;-81
2022/01/17 03:08:58;;;;;;;23.08;2.78;;;;;;;;;;5133825;27;20049;-81
2022/01/17 03:11:26;;;;;;;20.60;3.00;;;;;;;;;;5133552;27;20039;-81
2022/01/17 03:13:53;;;;;;;22.92;2.80;;;;;;;;;;5115300;28;20074;-80
2022/01/17 03:16:22;;;;;;;21.42;2.75;;;;;;;;;;5133385;27;20046;-80
2022/01/17 03:18:50;;;;;;;16.48;2.45;;;;;;;;;;5115348;28;20055;-80
2022/01/17 03:21:16;;;;;;;23.58;2.88;;;;;;;;;;5133740;27;20043;-80
2022/01/17 03:23:43;;;;;;;22.63;3.28;;;;;;;;;;5115387;28;20047;-80
2022/01/17 03:26:10;;;;;;;23.52;3.00;;;;;;;;;;5133532;28;20054;-80
2022/01/17 03:28:36;;;;;;;20.67;3.10;;;;;;;;;;5133306;28;20391;-80
2022/01/17 03:31:03;;;;;;;26.52;3.58;;;;;;;;;;5133401;28;20448;-81
2022/01/17 03:33:29;;;;;;;21.63;3.20;;;;;;;;;;5115031;28;20046;-80
2022/01/17 03:35:56;;;;;;;22.30;2.90;;;;;;;;;;5115522;28;20057;-81
2022/01/17 03:38:23;;;;;;;22.27;2.80;;;;;;;;;;5133362;28;20082;-80
2022/01/17 03:40:51;;;;;;;22.30;2.65;;;;;;;;;;5133394;28;20050;-80
2022/01/17 03:43:18;;;;;;;21.63;2.85;;;;;;;;;;5133281;28;20474;-81
2022/01/17 03:45:45;;;;;;;21.00;2.83;;;;;;;;;;5133397;28;20116;-80
2022/01/17 03:48:11;;;;;;;21.90;3.30;;;;;;;;;;5133444;28;20039;-81
2022/01/17 03:50:37;;;;;;;20.45;2.92;;;;;;;;;;5133334;28;20039;-81
2022/01/17 03:53:04;;;;;;;18.27;2.45;;;;;;;;;;5134154;27;20049;-81
2022/01/17 03:55:33;;;;;;;22.55;3.05;;;;;;;;;;5137334;27;20039;-80
2022/01/17 03:58:00;;;;;;;18.65;2.42;;;;;;;;;;5118963;27;20043;-80
2022/01/17 04:00:27;;;;;;;20.58;3.03;;;;;;;;;;5137181;27;20180;-80
2022/01/17 04:02:54;;;;;;;20.30;3.22;;;;;;;;;;5137332;27;20042;-79
2022/01/17 04:05:20;;;;;;;15.95;2.42;;;;;;;;;;5137323;27;20100;-80
2022/01/17 04:07:46;;;;;;;19.08;2.72;;;;;;;;;;5118889;27;20129;-81
2022/01/17 04:10:13;;;;;;;15.52;2.67;;;;;;;;;;5118787;27;20035;-80
2022/01/17 04:12:40;;;;;;;18.48;2.90;;;;;;;;;;5118358;27;20051;-80
2022/01/17 04:15:07;;;;;;;18.45;2.17;;;;;;;;;;5118803;27;20134;-80
2022/01/17 04:17:33;;;;;;;20.92;2.78;;;;;;;;;;5136956;27;20134;-80
2022/01/17 04:20:06;;;;;;;15.27;2.20;;;;;;;;;;5137152;27;20039;-79
2022/01/17 04:22:36;;;;;;;15.68;2.42;;;;;;;;;;5118630;27;20039;-80
2022/01/17 04:25:02;;;;;;;21.33;2.67;;;;;;;;;;5136577;27;20450;-81
2022/01/17 04:27:29;;;;;;;19.27;2.33;;;;;;;;;;5136811;27;20488;-80
2022/01/17 04:29:55;;;;;;;12.80;2.20;;;;;;;;;;5136675;27;20066;-80
2022/01/17 04:32:21;;;;;;;16.92;2.30;;;;;;;;;;5136622;27;20039;-80
2022/01/17 04:34:47;;;;;;;18.52;2.17;;;;;;;;;;5136587;27;20055;-80
2022/01/17 04:37:13;;;;;;;19.75;2.72;;;;;;;;;;5136563;27;20039;-80
2022/01/17 04:39:39;;;;;;;17.98;2.65;;;;;;;;;;5136270;27;20047;-80
2022/01/17 04:42:12;;;;;;;16.48;2.55;;;;;;;;;;5118454;27;20054;-81
2022/01/17 04:47:23;;;;;;;20.42;2.70;;;;;;;;;;5136374;27;20130;-80
2022/01/17 04:49:50;;;;;;;17.08;2.20;;;;;;;;;;5136193;27;20042;-81
2022/01/17 04:52:16;;;;;;;17.70;2.20;;;;;;;;;;5117918;27;20434;-80
2022/01/17 04:54:44;;;;;;;17.38;2.78;;;;;;;;;;5118263;27;20047;-80
2022/01/17 04:57:12;;;;;;;22.10;2.60;;;;;;;;;;5136062;27;20121;-80
2022/01/17 04:59:39;;;;;;;12.73;1.98;;;;;;;;;;5135808;27;20055;-80
2022/01/17 05:02:06;;;;;;;18.00;2.42;;;;;;;;;;5117640;27;20126;-80
2022/01/17 05:04:33;;;;;;;20.17;2.88;;;;;;;;;;5116467;28;20050;-80
2022/01/17 05:06:59;;;;;;;18.85;2.22;;;;;;;;;;5136232;27;20038;-80
2022/01/17 05:09:25;;;;;;;14.95;2.33;;;;;;;;;;5117953;27;20050;-80
2022/01/17 05:11:52;;;;;;;16.58;2.67;;;;;;;;;;5135858;27;20046;-80
2022/01/17 05:14:18;;;;;;;22.35;3.38;;;;;;;;;;5135733;27;20125;-79
2022/01/17 05:16:50;;;;;;;20.70;3.13;;;;;;;;;;5135905;27;20050;-79
2022/01/17 05:22:00;;;;;;;19.55;2.97;;;;;;;;;;5117698;27;20062;-80
2022/01/17 05:24:27;;;;;;;18.45;3.13;;;;;;;;;;5100533;27;20047;-80
2022/01/17 05:26:53;;;;;;;25.50;3.08;;;;;;;;;;5135344;27;20176;-80
2022/01/17 05:29:20;;;;;;;14.13;2.10;;;;;;;;;;5135471;27;20122;-80
2022/01/17 05:31:46;;;;;;;22.83;2.55;;;;;;;;;;5135143;27;20047;-81
2022/01/17 05:34:12;;;;;;;15.70;2.85;;;;;;;;;;5135581;27;20368;-80
2022/01/17 05:36:39;;;;;;;15.32;2.45;;;;;;;;;;5135486;27;20043;-79
2022/01/17 05:39:05;;;;;;;21.17;2.67;;;;;;;;;;5135369;27;20038;-80
2022/01/17 05:41:31;;;;;;;17.15;3.00;;;;;;;;;;5117201;27;20126;-79
2022/01/17 05:43:58;;;;;;;15.82;2.30;;;;;;;;;;5135241;27;20489;-79
2022/01/17 05:46:24;;;;;;;22.95;2.72;;;;;;;;;;5135041;27;20039;-80
2022/01/17 05:48:50;;;;;;;13.52;2.22;;;;;;;;;;5135148;27;20460;-80
2022/01/17 05:51:16;;;;;;;15.30;2.95;;;;;;;;;;5116855;27;20540;-80
2022/01/17 05:53:42;;;;;;;24.77;3.22;;;;;;;;;;5135071;27;20127;-80
2022/01/17 05:56:09;;;;;;;20.55;2.78;;;;;;;;;;5135002;27;20085;-80
2022/01/17 05:58:35;;;;;;;22.45;3.33;;;;;;;;;;5099268;27;20039;-80
2022/01/17 06:01:01;;;;;;;20.65;2.90;;;;;;;;;;5135165;27;20051;-80
2022/01/17 06:03:27;;;;;;;19.95;3.53;;;;;;;;;;5134724;27;20043;-81
2022/01/17 06:05:54;;;;;;;21.65;3.38;;;;;;;;;;5116726;27;20464;-81
2022/01/17 06:08:20;;;;;;;19.15;3.50;;;;;;;;;;5134724;27;20606;-81
2022/01/17 06:10:46;;;;;;;19.33;3.05;;;;;;;;;;5116661;27;20122;-80
2022/01/17 06:13:12;;;;;;;19.35;3.45;;;;;;;;;;5134429;27;20126;-80
2022/01/17 06:15:38;;;;;;;17.23;3.38;;;;;;;;;;5134568;27;20078;-80
2022/01/17 06:18:04;;;;;;;21.52;3.13;;;;;;;;;;5134913;27;20043;-80
2022/01/17 06:20:31;;;;;;;22.90;3.70;;;;;;;;;;5134538;27;20050;-80
2022/01/17 06:22:57;;;;;;;22.60;3.80;;;;;;;;;;5134575;27;20099;-80
2022/01/17 06:25:23;;;;;;;16.58;3.15;;;;;;;;;;5116181;27;20074;-80
2022/01/17 06:27:49;;;;;;;21.65;4.28;;;;;;;;;;5134299;27;20468;-81
2022/01/17 06:30:15;;;;;;;22.90;4.20;;;;;;;;;;5134296;27;20156;-80
2022/01/17 06:32:41;;;;;;;27.52;4.15;;;;;;;;;;5116139;27;20531;-80
2022/01/17 06:35:08;;;;;;;23.25;3.80;;;;;;;;;;5134129;27;20039;-80
2022/01/17 06:37:35;;;;;;;21.88;3.95;;;;;;;;;;5115873;27;20075;-79
2022/01/17 06:40:02;;;;;;;22.13;3.35;;;;;;;;;;5115955;27;20054;-80
2022/01/17 06:42:28;;;;;;;21.02;3.75;;;;;;;;;;5115844;27;20053;-79
2022/01/17 06:44:54;;;;;;;26.52;4.50;;;;;;;;;;5116019;27;20457;-80
2022/01/17 06:47:20;;;;;;;20.98;3.70;;;;;;;;;;5116009;27;20098;-81
2022/01/17 06:49:46;;;;;;;24.33;4.43;;;;;;;;;;5134177;27;20122;-80
2022/01/17 06:52:13;;;;;;;26.92;4.18;;;;;;;;;;5115626;27;20483;-80
2022/01/17 06:54:39;;;;;;;21.20;4.45;;;;;;;;;;5133898;27;20035;-81
2022/01/17 06:57:05;;;;;;;21.13;4.22;;;;;;;;;;5133722;27;20042;-80
2022/01/17 06:59:31;;;;;;;21.02;4.00;;;;;;;;;;5115552;27;20117;-80
2022/01/17 07:01:57;;;;;;;24.00;4.40;;;;;;;;;;5133909;27;20114;-80
2022/01/17 07:04:23;;;;;;;21.42;4.35;;;;;;;;;;5115723;27;20043;-80
2022/01/17 07:06:50;;;;;;;24.55;4.68;;;;;;;;;;5133843;27;20041;-80
2022/01/17 07:09:19;;;;;;;29.60;4.65;;;;;;;;;;5133795;27;20122;-81
2022/01/17 07:11:45;;;;;;;22.88;4.35;;;;;;;;;;5133530;27;20053;-81
2022/01/17 07:14:12;;;;;;;21.10;4.68;;;;;;;;;;5133667;27;20051;-81
2022/01/17 07:16:39;;;;;;;28.20;4.53;;;;;;;;;;5115465;28;20035;-81
2022/01/17 07:19:05;;;;;;;26.08;5.25;;;;;;;;;;5133493;27;20468;-81
2022/01/17 07:21:32;;;;;;;30.42;4.97;;;;;;;;;;5133555;27;20107;-82
2022/01/17 07:23:58;;;;;;;23.55;5.25;;;;;;;;;;5133096;28;20418;-81
2022/01/17 07:26:25;;;;;;;28.30;4.80;;;;;;;;;;5132394;28;20475;-81
2022/01/17 07:28:51;;;;;;;22.73;5.03;;;;;;;;;;5131900;27;20130;-81
2022/01/17 07:31:17;;;;;;;24.38;5.20;;;;;;;;;;5132505;28;20039;-81
2022/01/17 07:33:44;;;;;;;23.30;5.00;;;;;;;;;;5132577;28;20042;-81
2022/01/17 07:36:12;;;;;;;24.77;5.00;;;;;;;;;;5098009;28;20391;-81
2022/01/17 07:38:39;;;;;;;27.00;4.78;;;;;;;;;;5115281;28;20387;-81
2022/01/17 07:41:05;;;;;;;25.10;4.45;;;;;;;;;;5114905;28;20126;-80
2022/01/17 07:43:31;;;;;;;29.63;5.03;;;;;;;;;;5132693;28;20035;-81
2022/01/17 07:46:05;;;;;;;27.63;4.65;;;;;;;;;;5114996;28;20050;-81
2022/01/17 07:50:59;;;;;;;34.47;5.53;;;;;;;;;;5133182;28;20150;-81
2022/01/17 07:53:25;;;;;;;23.58;4.45;;;;;;;;;;5131158;28;20100;-81
2022/01/17 07:55:51;;;;;;;34.78;5.57;;;;;;;;;;5113801;28;20428;-80
2022/01/17 07:58:17;;;;;;;24.95;4.70;;;;;;;;;;5097200;28;20047;-80
2022/01/17 08:00:43;;;;;;;31.50;4.93;;;;;;;;;;5113506;28;20130;-82
2022/01/17 08:03:09;;;;;;;22.25;4.88;;;;;;;;;;5132037;28;20396;-80
2022/01/17 08:05:36;;;;;;;28.65;5.22;;;;;;;;;;5113748;28;20043;-81
2022/01/17 08:08:02;;;;;;;27.20;4.90;;;;;;;;;;5132135;28;20430;-80
2022/01/17 08:10:29;;;;;;;30.60;4.85;;;;;;;;;;5132150;28;20697;-81
2022/01/17 08:12:55;;;;;;;29.40;4.95;;;;;;;;;;5132050;28;20083;-81
2022/01/17 08:15:21;;;;;;;32.78;5.38;;;;;;;;;;5113690;28;20046;-81
2022/01/17 08:17:47;;;;;;;30.10;5.00;;;;;;;;;;5113679;28;20541;-81
2022/01/17 08:20:14;;;;;;;37.47;5.68;;;;;;;;;;5113382;28;20039;-81
2022/01/17 08:22:41;;;;;;;31.67;5.22;;;;;;;;;;5113678;28;20054;-81
2022/01/17 08:25:07;;;;;;;35.40;5.20;;;;;;;;;;5113762;28;20043;-81
2022/01/17 08:27:34;;;;;;;33.78;5.63;;;;;;;;;;5131935;28;20388;-80
2022/01/17 08:30:00;;;;;;;30.25;5.75;;;;;;;;;;5132023;28;20130;-80
2022/01/17 08:32:29;;;;;;;35.95;4.82;;;;;;;;;;5131821;28;20035;-80
2022/01/17 08:34:56;;;;;;;34.42;5.25;;;;;;;;;;5132128;28;20047;-81
2022/01/17 08:37:22;;;;;;;32.95;5.20;;;;;;;;;;5132618;28;20043;-81
2022/01/17 08:39:48;;;;;;;29.17;4.30;;;;;;;;;;5133329;27;20036;-81
2022/01/17 08:42:14;;;;;;;35.03;5.45;;;;;;;;;;5117012;27;20361;-81
2022/01/17 08:44:40;;;;;;;38.70;5.40;;;;;;;;;;5135559;27;20122;-81
2022/01/17 08:47:07;;;;;;;34.85;5.20;;;;;;;;;;5135368;27;20043;-80
2022/01/17 08:49:33;;;;;;;35.85;5.18;;;;;;;;;;5135174;27;20043;-81
2022/01/17 08:51:59;;;;;;;29.35;4.35;;;;;;;;;;5135061;27;20039;-81
2022/01/17 08:54:25;;;;;;;37.58;5.90;;;;;;;;;;5135262;27;20043;-81
2022/01/17 08:56:51;;;;;;;36.88;5.53;;;;;;;;;;5135384;27;20126;-81
2022/01/17 08:59:17;;;;;;;29.42;4.78;;;;;;;;;;5135180;27;20043;-81
2022/01/17 09:01:43;;;;;;;33.42;4.68;;;;;;;;;;5116388;27;20046;-81
2022/01/17 09:04:09;;;;;;;35.50;5.25;;;;;;;;;;5134852;27;20043;-81
2022/01/17 09:06:37;;;;;;;40.92;5.22;;;;;;;;;;5135339;27;20043;-81
2022/01/17 09:09:03;;;;;;;33.17;4.40;;;;;;;;;;5116721;27;20095;-81
2022/01/17 09:11:29;;;;;;;42.60;5.88;;;;;;;;;;5135163;27;20092;-81
2022/01/17 09:13:55;;;;;;;36.60;5.38;;;;;;;;;;5134450;27;20122;-80
2022/01/17 09:16:21;;;;;;;32.17;5.50;;;;;;;;;;5116533;27;20061;-80
2022/01/17 09:18:48;;;;;;;49.55;5.65;;;;;;;;;;5134897;27;20043;-80
2022/01/17 09:21:14;;;;;;;38.15;5.43;;;;;;;;;;5116649;27;20043;-80
2022/01/17 09:23:41;;;;;;;32.13;5.05;;;;;;;;;;5116923;27;20047;-80
2022/01/17 09:26:07;;;;;;;37.28;4.95;;;;;;;;;;5134804;27;20092;-80
2022/01/17 09:28:34;;;;;;;32.35;5.68;;;;;;;;;;5134441;27;20043;-80
2022/01/17 09:31:00;;;;;;;43.25;5.82;;;;;;;;;;5134539;27;20047;-80
2022/01/17 09:33:26;;;;;;;36.13;5.47;;;;;;;;;;5134348;27;20387;-81
2022/01/17 09:35:52;;;;;;;46.83;6.03;;;;;;;;;;5134532;27;20043;-81
2022/01/17 09:38:19;;;;;;;37.80;5.20;;;;;;;;;;5135326;27;20123;-76
2022/01/17 09:40:45;;;;;;;36.13;5.45;;;;;;;;;;5135509;27;20095;-74
2022/01/17 09:43:11;;;;;;;36.50;5.40;;;;;;;;;;5116939;27;20035;-81
2022/01/17 09:45:37;;;;;;;37.22;5.32;;;;;;;;;;5135094;27;20122;-81
2022/01/17 09:48:06;;;;;;;46.92;6.10;;;;;;;;;;5135299;27;20122;-81
2022/01/17 09:50:46;;;;;;;39.03;6.05;;;;;;;;;;5134480;27;20051;-81
2022/01/17 09:53:15;;;;;;;34.63;5.82;;;;;;;;;;5134984;27;20039;-81
2022/01/17 09:55:41;;;;;;;37.80;5.60;;;;;;;;;;5134950;27;20392;-81
2022/01/17 09:58:09;;;;;;;42.78;6.15;;;;;;;;;;5116611;27;20050;-81
2022/01/17 10:00:40;;;;;;;36.97;6.22;;;;;;;;;;5112887;28;20047;-80
2022/01/17 10:03:12;;;;;;;34.10;5.05;;;;;;;;;;5114372;28;20472;-81
2022/01/17 10:05:38;;;;;;;40.63;5.32;;;;;;;;;;5113196;28;20055;-81
2022/01/17 10:08:06;;;;;;;38.30;5.55;;;;;;;;;;5114271;28;20388;-81
2022/01/17 10:10:35;;;;;;;41.10;5.88;;;;;;;;;;5114086;28;20405;-82
2022/01/17 10:13:06;;;;;;;36.63;5.85;;;;;;;;;;5112726;28;20585;-81
2022/01/17 10:15:44;;;;;;;35.00;5.47;;;;;;;;;;5113303;28;20046;-81
2022/01/17 10:18:23;;;;;;;41.28;6.20;;;;;;;;;;5113925;28;20078;-81
2022/01/17 10:20:55;;;;;;;45.05;6.30;;;;;;;;;;5113682;28;20040;-81
2022/01/17 10:23:40;;;;;;;35.90;5.68;;;;;;;;;;5112510;28;20169;-80
2022/01/17 10:26:17;;;;;;;44.38;6.97;;;;;;;;;;5112910;28;20043;-80
2022/01/17 10:36:45;;;;;;;41.53;6.63;;;;;;;;;;5113508;28;20055;-82
2022/01/17 10:39:11;;;;;;;40.38;6.90;;;;;;;;;;5110001;28;20062;-80
2022/01/17 10:41:37;;;;;;;38.90;6.47;;;;;;;;;;5111895;28;20039;-81
2022/01/17 10:44:04;;;;;;;36.33;5.68;;;;;;;;;;5113132;28;20046;-80
2022/01/17 10:46:30;;;;;;;40.15;5.50;;;;;;;;;;5112639;28;20055;-81
2022/01/17 10:48:57;;;;;;;42.75;6.70;;;;;;;;;;5113192;28;20127;-81
2022/01/17 10:51:33;;;;;;;41.80;6.38;;;;;;;;;;5112261;28;20044;-81
2022/01/17 10:54:11;;;;;;;46.42;6.95;;;;;;;;;;5111587;28;20104;-81
2022/01/17 10:56:49;;;;;;;43.30;6.53;;;;;;;;;;5112081;28;20090;-81
2022/01/17 10:59:25;;;;;;;41.10;6.53;;;;;;;;;;5112063;28;20378;-81
2022/01/17 11:01:54;;;;;;;42.42;6.00;;;;;;;;;;5110965;28;20131;-80
2022/01/17 11:04:33;;;;;;;44.72;7.13;;;;;;;;;;5112004;28;20048;-80
2022/01/17 11:07:02;;;;;;;51.97;7.47;;;;;;;;;;5111604;28;20078;-80
2022/01/17 11:09:37;;;;;;;45.78;6.45;;;;;;;;;;5112952;28;20133;-80
2022/01/17 11:12:08;;;;;;;40.40;6.38;;;;;;;;;;5111615;28;20181;-81
2022/01/17 11:14:36;;;;;;;50.92;7.53;;;;;;;;;;5112779;28;20039;-80
2022/01/17 11:17:10;;;;;;;44.58;7.18;;;;;;;;;;5112879;28;20055;-80
2022/01/17 11:22:22;;;;;;;41.95;6.55;;;;;;;;;;5111686;28;20089;-80
2022/01/17 11:24:48;;;;;;;38.45;5.60;;;;;;;;;;5112727;28;20043;-80
2022/01/17 11:27:14;;;;;;;40.03;6.78;;;;;;;;;;5112996;28;20075;-80
2022/01/17 11:29:41;;;;;;;45.58;6.85;;;;;;;;;;5111946;28;20119;-81
2022/01/17 11:32:07;;;;;;;41.60;6.32;;;;;;;;;;5112627;28;20039;-80
2022/01/17 11:34:33;;;;;;;33.50;6.65;;;;;;;;;;5112995;28;20499;-80
2022/01/17 11:37:00;;;;;;;45.88;6.75;;;;;;;;;;5112794;28;20089;-81
2022/01/17 11:39:27;;;;;;;39.75;6.25;;;;;;;;;;5112681;28;20472;-82
2022/01/17 11:41:53;;;;;;;44.78;6.95;;;;;;;;;;5112718;28;20055;-81
2022/01/17 11:44:31;;;;;;;47.15;8.02;;;;;;;;;;5112646;28;20495;-81
2022/01/17 11:46:59;;;;;;;42.92;6.78;;;;;;;;;;5111497;28;20388;-80
2022/01/17 11:49:31;;;;;;;45.40;7.40;;;;;;;;;;5112893;28;20050;-81
2022/01/17 11:51:57;;;;;;;48.53;7.63;;;;;;;;;;5112211;28;20404;-81
2022/01/17 11:54:24;;;;;;;38.22;6.53;;;;;;;;;;5112514;28;20126;-81
2022/01/17 11:57:17;;;;;;;50.67;7.93;;;;;;;;;;5112452;28;20047;-75
2022/01/17 11:59:48;;;;;;;44.85;7.13;;;;;;;;;;5106116;28;20485;-81
2022/01/17 12:02:14;;;;;;;;;;;;;;;;;;5129795;28;20111;-82
2022/01/17 12:04:41;;;;;;;47.45;6.63;;;;;;;;;;5133019;28;19919;-81
2022/01/17 12:07:07;;;;;;;47.63;7.03;;;;;;;;;;5132759;28;20176;-80
2022/01/17 12:09:35;;;;;;;44.60;6.88;;;;;;;;;;5132760;28;20047;-81
2022/01/17 12:12:03;;;;;;;40.90;7.35;;;;;;;;;;5133099;28;20560;-80
2022/01/17 12:14:34;;;;;;;43.40;7.85;;;;;;;;;;5116437;27;20505;-80
2022/01/17 12:17:19;;;;;;;48.70;7.13;;;;;;;;;;5136864;27;20046;-81
2022/01/17 12:20:04;;;;;;;44.30;7.47;;;;;;;;;;5136935;27;20108;-82
2022/01/17 12:22:33;;;;;;;50.53;7.22;;;;;;;;;;5136683;27;20127;-81
2022/01/17 12:25:00;;;;;;;43.10;6.32;;;;;;;;;;5102005;27;20051;-81
2022/01/17 12:27:27;;;;;;;36.83;6.25;;;;;;;;;;5118737;27;20039;-81
2022/01/17 12:29:56;;;;;;;39.92;6.68;;;;;;;;;;5118538;27;20138;-81
2022/01/17 12:32:26;;;;;;;44.80;6.45;;;;;;;;;;5136750;27;20042;-81
2022/01/17 12:34:54;;;;;;;38.58;6.32;;;;;;;;;;5136736;27;20082;-80
2022/01/17 12:37:39;;;;;;;35.40;6.82;;;;;;;;;;5137347;27;20074;-81
2022/01/17 12:40:13;;;;;;;37.95;7.15;;;;;;;;;;5136520;27;20128;-80
2022/01/17 12:42:48;;;;;;;41.80;7.40;;;;;;;;;;5118157;27;20452;-81
2022/01/17 12:45:22;;;;;;;39.00;7.47;;;;;;;;;;5118681;27;20058;-80
2022/01/17 12:47:49;;;;;;;42.08;6.72;;;;;;;;;;5136918;27;20368;-82
2022/01/17 12:50:15;;;;;;;33.50;5.82;;;;;;;;;;5137163;27;20050;-81
2022/01/17 12:52:41;;;;;;;42.88;7.00;;;;;;;;;;5136915;27;20078;-81
2022/01/17 12:55:08;;;;;;;41.13;6.40;;;;;;;;;;5136404;27;20130;-81
2022/01/17 12:57:42;;;;;;;37.78;6.00;;;;;;;;;;5118394;27;20046;-82
2022/01/17 13:00:17;;;;;;;43.55;6.07;;;;;;;;;;5118635;27;20476;-81
2022/01/17 13:02:47;;;;;;;40.53;7.30;;;;;;;;;;5136420;27;20090;-81
2022/01/17 13:05:13;;;;;;;41.30;7.30;;;;;;;;;;5136293;27;20042;-81
2022/01/17 13:07:43;;;;;;;42.53;7.38;;;;;;;;;;5136417;27;20039;-81
2022/01/17 13:10:10;;;;;;;41.88;7.03;;;;;;;;;;5136380;27;20039;-82
2022/01/17 13:12:36;;;;;;;39.80;6.63;;;;;;;;;;5136155;27;20043;-80
2022/01/17 13:15:03;;;;;;;32.35;5.97;;;;;;;;;;5136371;27;20039;-81
2022/01/17 13:17:33;;;;;;;43.70;6.43;;;;;;;;;;5118852;27;20108;-80
2022/01/17 13:19:59;;;;;;;35.78;6.30;;;;;;;;;;5136295;27;20468;-81
2022/01/17 13:22:26;;;;;;;40.70;6.47;;;;;;;;;;5117594;27;20169;-80
2022/01/17 13:25:03;;;;;;;40.15;7.75;;;;;;;;;;5136036;27;20039;-79
2022/01/17 13:27:32;;;;;;;40.67;6.88;;;;;;;;;;5116908;27;20119;-80
2022/01/17 13:29:59;;;;;;;35.22;7.18;;;;;;;;;;5136017;27;20043;-81
2022/01/17 13:32:33;;;;;;;36.60;6.43;;;;;;;;;;5117332;27;20043;-81
2022/01/17 13:35:33;;;;;;;31.67;6.00;;;;;;;;;;5135394;27;20035;-80
2022/01/17 13:38:20;;;;;;;30.08;5.20;;;;;;;;;;5074001;27;20106;-80
2022/01/17 13:40:47;;;;;;;25.42;4.60;;;;;;;;;;5135554;27;20047;-81
2022/01/17 13:43:13;;;;;;;31.80;5.35;;;;;;;;;;5135552;27;20447;-81
2022/01/17 13:45:44;;;;;;;31.10;5.35;;;;;;;;;;5117309;27;20372;-81
2022/01/17 13:48:14;;;;;;;24.90;4.95;;;;;;;;;;5135901;27;20039;-82
2022/01/17 13:50:51;;;;;;;38.47;5.40;;;;;;;;;;5118028;27;20049;-81
2022/01/17 13:53:18;;;;;;;33.47;5.72;;;;;;;;;;5135420;27;20787;-81
2022/01/17 13:55:45;;;;;;;35.67;5.50;;;;;;;;;;5135252;27;20039;-81
2022/01/17 13:58:13;;;;;;;32.20;5.55;;;;;;;;;;5135543;27;20039;-81
2022/01/17 14:00:44;;;;;;;34.97;5.63;;;;;;;;;;5117605;27;20532;-81
2022/01/17 14:03:12;;;;;;;33.72;6.13;;;;;;;;;;5135667;27;20054;-80
2022/01/17 14:05:43;;;;;;;39.10;5.57;;;;;;;;;;5116944;27;20488;-80
2022/01/17 14:08:30;;;;;;;36.88;6.20;;;;;;;;;;5133518;27;20039;-80
2022/01/17 14:11:07;;;;;;;38.42;6.90;;;;;;;;;;5116535;27;20047;-80
2022/01/17 14:13:35;;;;;;;44.05;6.53;;;;;;;;;;5116544;27;20043;-81
2022/01/17 14:16:30;;;;;;;40.28;6.68;;;;;;;;;;5116862;27;20503;-80
2022/01/17 14:18:56;;;;;;;37.15;6.78;;;;;;;;;;5095367;27;20100;-81
2022/01/17 14:21:28;;;;;;;33.60;5.25;;;;;;;;;;5134831;27;20456;-80
2022/01/17 14:24:07;;;;;;;30.83;5.07;;;;;;;;;;5116299;27;20050;-80
2022/01/17 14:26:34;;;;;;;39.40;5.95;;;;;;;;;;5134853;27;20120;-81
2022/01/17 14:29:00;;;;;;;32.05;5.20;;;;;;;;;;5134430;27;20080;-81
2022/01/17 14:31:31;;;;;;;35.63;6.68;;;;;;;;;;5135040;27;20138;-81
2022/01/17 14:34:08;;;;;;;45.40;6.50;;;;;;;;;;5134204;27;20061;-80
2022/01/17 14:36:34;;;;;;;32.55;6.13;;;;;;;;;;5119583;27;20039;-81
2022/01/17 14:39:05;;;;;;;33.83;6.97;;;;;;;;;;5128285;27;20035;-77
2022/01/17 14:41:36;;;;;;;31.83;6.43;;;;;;;;;;5116050;27;20492;-78
2022/01/17 14:44:06;;;;;;;36.45;6.25;;;;;;;;;;5116713;27;20383;-75
2022/01/17 14:46:33;;;;;;;28.13;5.70;;;;;;;;;;5109154;27;20043;-78
2022/01/17 14:48:59;;;;;;;31.80;6.63;;;;;;;;;;5135279;27;20363;-79
2022/01/17 14:51:30;;;;;;;31.73;6.20;;;;;;;;;;5136198;27;20469;-80
2022/01/17 14:54:01;;;;;;;32.30;5.30;;;;;;;;;;5154455;27;20034;-80
2022/01/17 15:02:11;;;;;;;31.15;4.82;;;;;;;;;;5154388;27;20054;-79
2022/01/17 15:04:39;;;;;;;32.58;5.18;;;;;;;;;;5135996;27;20406;-80
2022/01/17 15:07:06;;;;;;;33.25;6.10;;;;;;;;;;5135886;27;20129;-80
2022/01/17 15:09:32;;;;;;;37.10;6.90;;;;;;;;;;5136078;27;20050;-79
2022/01/17 15:11:59;;;;;;;37.40;6.38;;;;;;;;;;5154375;27;20082;-79
2022/01/17 15:14:25;;;;;;;37.78;5.60;;;;;;;;;;5154466;27;20042;-79
2022/01/17 15:16:51;;;;;;;34.80;6.13;;;;;;;;;;5154256;27;20039;-80
2022/01/17 15:19:18;;;;;;;30.63;5.45;;;;;;;;;;5135651;27;20087;-80
2022/01/17 15:21:44;;;;;;;26.85;4.15;;;;;;;;;;5154212;27;20392;-79
2022/01/17 15:24:10;;;;;;;35.42;4.97;;;;;;;;;;5135633;27;20042;-78
2022/01/17 15:26:38;;;;;;;34.75;5.38;;;;;;;;;;5154154;27;20369;-79
2022/01/17 15:29:07;;;;;;;29.25;4.63;;;;;;;;;;5154169;27;20054;-79
2022/01/17 15:31:35;;;;;;;31.33;4.82;;;;;;;;;;5154163;27;20459;-79
2022/01/17 15:34:02;;;;;;;32.10;5.13;;;;;;;;;;5154024;27;20045;-80
2022/01/17 15:36:28;;;;;;;38.75;6.10;;;;;;;;;;5154080;27;20038;-79
2022/01/17 15:38:54;;;;;;;36.17;5.63;;;;;;;;;;5153964;27;20038;-79
2022/01/17 15:41:20;;;;;;;35.42;5.00;;;;;;;;;;5135675;27;20070;-79
2022/01/17 15:43:52;;;;;;;37.70;5.90;;;;;;;;;;5154075;27;20100;-79
2022/01/17 15:46:18;;;;;;;36.60;5.07;;;;;;;;;;5153747;27;20543;-79
2022/01/17 15:48:44;;;;;;;42.17;6.18;;;;;;;;;;5154159;27;20038;-80
2022/01/17 15:51:12;;;;;;;39.17;5.88;;;;;;;;;;5139757;27;20043;-80